Time;durP1;ratioP1;P1;durP2;ratioP2;P2;SDS_P1;SDS_P2;PMS_P1;PMS_P2;Temp;Humidity;BMP_temperature;BMP_pressure;BME280_temperature;BME280_humidity;BME280_pressure;Samples;Min_cycle;Max_cycle;Signal;HPM_P1;HPM_P2
2021/04/19 00:01:39;;;;;;;21.83;17.03;;;5.90;89.10;;;;;;5053633;28;20318;-82
2021/04/19 00:04:05;;;;;;;22.10;17.63;;;5.90;86.50;;;;;;5054676;28;20235;-83
2021/04/19 00:06:32;;;;;;;22.40;17.10;;;5.80;85.20;;;;;;5053552;28;20715;-84
2021/04/19 00:08:58;;;;;;;20.87;16.87;;;5.60;89.40;;;;;;5051896;28;20203;-84
2021/04/19 00:11:25;;;;;;;24.10;17.20;;;5.40;88.10;;;;;;5052859;28;20592;-83
2021/04/19 00:13:51;;;;;;;22.30;17.13;;;5.30;89.10;;;;;;5051948;28;20202;-84
2021/04/19 00:16:18;;;;;;;22.20;16.83;;;5.30;89.80;;;;;;5056054;28;20222;-83
2021/04/19 00:18:45;;;;;;;21.03;16.10;;;5.40;90.10;;;;;;5052960;28;20210;-83
2021/04/19 00:21:11;;;;;;;23.00;17.10;;;5.30;89.10;;;;;;5055413;28;20233;-85
2021/04/19 00:23:37;;;;;;;20.37;16.63;;;5.40;90.20;;;;;;5058336;28;20645;-86
2021/04/19 00:26:04;;;;;;;22.10;16.60;;;5.70;90.50;;;;;;5057509;28;20229;-83
2021/04/19 00:28:30;;;;;;;20.93;15.90;;;5.90;89.50;;;;;;5051347;28;20194;-87
2021/04/19 00:30:57;;;;;;;21.37;16.30;;;5.90;87.90;;;;;;5055189;28;20258;-85
2021/04/19 00:33:23;;;;;;;23.93;17.10;;;5.80;88.30;;;;;;5058881;28;20200;-85
2021/04/19 00:35:50;;;;;;;22.97;17.53;;;5.70;87.80;;;;;;5057489;28;20231;-85
2021/04/19 00:38:17;;;;;;;22.57;17.80;;;5.60;87.80;;;;;;5055133;28;20198;-85
2021/04/19 00:40:45;;;;;;;19.87;15.83;;;5.50;89.30;;;;;;5058599;28;20225;-84
2021/04/19 00:43:11;;;;;;;22.03;16.83;;;5.50;90.20;;;;;;5053477;28;20758;-85
2021/04/19 00:45:39;;;;;;;23.53;17.00;;;5.70;89.40;;;;;;5049939;28;20233;-89
2021/04/19 00:48:06;;;;;;;22.73;16.40;;;5.80;89.50;;;;;;5052155;28;20256;-84
2021/04/19 00:50:35;;;;;;;22.03;15.53;;;5.90;89.50;;;;;;5054943;28;20260;-85
2021/04/19 00:53:04;;;;;;;21.07;15.90;;;6.30;89.00;;;;;;5053894;28;20209;-84
2021/04/19 00:55:31;;;;;;;19.80;15.60;;;6.30;88.00;;;;;;5057849;28;20589;-84
2021/04/19 00:57:57;;;;;;;19.67;15.37;;;6.50;87.90;;;;;;5057030;28;20206;-85
2021/04/19 01:00:27;;;;;;;20.67;16.10;;;6.60;84.70;;;;;;5065733;28;20205;-85
2021/04/19 01:02:55;;;;;;;21.53;16.00;;;6.60;86.40;;;;;;5054270;28;20225;-85
2021/04/19 01:05:24;;;;;;;20.53;16.20;;;6.60;84.30;;;;;;5056923;28;20210;-85
2021/04/19 01:07:51;;;;;;;21.67;16.40;;;6.50;86.20;;;;;;5054398;28;20204;-85
2021/04/19 01:10:18;;;;;;;19.63;15.80;;;6.60;85.00;;;;;;5065754;28;20234;-85
2021/04/19 01:12:45;;;;;;;20.20;16.43;;;6.50;85.70;;;;;;5060464;28;20200;-84
2021/04/19 01:15:14;;;;;;;20.53;17.00;;;6.60;83.70;;;;;;5046249;28;20205;-84
2021/04/19 01:17:40;;;;;;;22.10;16.70;;;6.40;83.60;;;;;;5056034;28;20228;-84
2021/04/19 01:20:08;;;;;;;21.60;16.53;;;6.40;88.00;;;;;;5053979;28;20225;-84
2021/04/19 01:22:36;;;;;;;20.10;16.37;;;6.40;84.90;;;;;;5052150;28;20209;-84
2021/04/19 01:25:05;;;;;;;23.37;17.33;;;6.40;84.50;;;;;;5051470;28;20213;-84
2021/04/19 01:27:32;;;;;;;19.93;15.73;;;6.20;84.20;;;;;;5057725;28;20221;-85
2021/04/19 01:29:58;;;;;;;19.17;15.87;;;6.30;88.90;;;;;;5065271;28;20241;-84
2021/04/19 01:32:25;;;;;;;19.87;15.70;;;6.20;86.60;;;;;;5054497;28;20225;-84
2021/04/19 01:34:51;;;;;;;22.10;16.27;;;6.40;88.50;;;;;;5055000;28;20202;-84
2021/04/19 01:37:18;;;;;;;21.13;15.67;;;6.50;85.40;;;;;;5058464;28;20222;-84
2021/04/19 01:39:45;;;;;;;23.37;17.00;;;6.50;85.80;;;;;;5056983;28;20646;-85
2021/04/19 01:42:11;;;;;;;22.87;16.80;;;6.40;85.50;;;;;;5055528;28;20271;-87
2021/04/19 01:44:38;;;;;;;22.40;16.87;;;6.50;85.90;;;;;;5059116;28;20194;-84
2021/04/19 01:47:05;;;;;;;23.77;16.43;;;6.50;83.20;;;;;;5065409;28;20230;-87
2021/04/19 01:49:32;;;;;;;21.03;16.10;;;6.40;85.40;;;;;;5055765;28;20194;-83
2021/04/19 01:51:59;;;;;;;20.53;15.80;;;6.40;85.00;;;;;;5057523;28;20230;-86
2021/04/19 01:54:26;;;;;;;25.33;17.70;;;6.40;85.90;;;;;;5053923;28;21619;-84
2021/04/19 01:56:53;;;;;;;20.90;15.90;;;6.30;85.10;;;;;;5055679;28;20225;-84
2021/04/19 01:59:20;;;;;;;20.77;15.90;;;6.40;87.00;;;;;;5059682;28;20229;-84
2021/04/19 02:01:54;;;;;;;20.53;15.83;;;6.40;85.90;;;;;;5058873;28;20518;-84
2021/04/19 02:04:31;;;;;;;22.27;16.70;;;6.40;84.10;;;;;;5054565;28;20213;-86
2021/04/19 02:07:04;;;;;;;22.27;17.00;;;6.30;83.90;;;;;;5059591;28;20232;-86
2021/04/19 02:09:38;;;;;;;23.47;17.00;;;6.20;83.70;;;;;;5054821;28;20205;-85
2021/04/19 02:12:12;;;;;;;20.77;16.17;;;6.00;84.50;;;;;;5063599;28;20236;-85
2021/04/19 02:14:47;;;;;;;20.40;15.77;;;5.90;87.10;;;;;;5059984;28;20701;-85
2021/04/19 02:17:23;;;;;;;21.03;16.73;;;6.00;87.20;;;;;;5057893;28;20318;-84
2021/04/19 02:19:54;;;;;;;20.13;15.73;;;6.10;86.00;;;;;;5058018;28;20663;-84
2021/04/19 02:22:25;;;;;;;20.03;15.87;;;6.10;87.00;;;;;;5062323;28;20248;-84
2021/04/19 02:24:57;;;;;;;20.37;15.97;;;6.30;86.30;;;;;;5058492;28;20676;-84
2021/04/19 02:27:31;;;;;;;21.60;16.50;;;6.30;85.00;;;;;;5058540;28;20230;-84
2021/04/19 02:29:59;;;;;;;20.83;15.83;;;6.10;85.50;;;;;;5054914;28;20210;-84
2021/04/19 02:32:30;;;;;;;20.33;15.83;;;6.10;87.90;;;;;;5061454;28;20221;-84
2021/04/19 02:35:00;;;;;;;20.97;15.47;;;6.20;85.30;;;;;;5070449;28;20225;-84
2021/04/19 02:37:29;;;;;;;20.57;15.67;;;6.10;85.40;;;;;;5059057;28;20229;-84
2021/04/19 02:39:57;;;;;;;22.00;16.00;;;6.10;87.10;;;;;;5066952;28;20208;-84
2021/04/19 02:42:25;;;;;;;23.03;16.20;;;6.10;86.20;;;;;;5059472;28;20942;-84
2021/04/19 02:44:54;;;;;;;19.63;15.07;;;6.10;86.80;;;;;;5061886;28;20206;-84
2021/04/19 02:47:21;;;;;;;20.33;15.33;;;6.00;86.60;;;;;;5068115;28;20229;-84
2021/04/19 02:49:48;;;;;;;20.33;15.43;;;6.20;88.40;;;;;;5059033;28;20208;-85
2021/04/19 02:52:16;;;;;;;20.40;15.33;;;6.30;85.60;;;;;;5063458;28;20233;-86
2021/04/19 02:54:46;;;;;;;17.93;14.60;;;6.30;86.70;;;;;;5068543;28;20202;-84
2021/04/19 02:57:23;;;;;;;18.80;15.20;;;6.30;86.30;;;;;;5064387;28;20217;-84
2021/04/19 02:59:52;;;;;;;21.53;15.03;;;6.30;85.10;;;;;;5068788;28;20205;-85
2021/04/19 03:02:21;;;;;;;23.10;16.43;;;6.30;85.00;;;;;;5060378;28;20225;-85
2021/04/19 03:04:47;;;;;;;19.10;14.73;;;6.40;84.70;;;;;;5069570;28;20206;-85
2021/04/19 03:07:15;;;;;;;22.37;16.60;;;6.30;86.70;;;;;;5061663;28;20228;-85
2021/04/19 03:09:46;;;;;;;20.53;15.73;;;6.20;85.80;;;;;;5058981;28;20206;-85
2021/04/19 03:12:15;;;;;;;21.47;16.03;;;6.10;85.80;;;;;;5064723;28;20708;-85
2021/04/19 03:14:53;;;;;;;20.63;15.83;;;6.00;85.80;;;;;;5061298;28;20201;-85
2021/04/19 03:17:23;;;;;;;20.10;15.13;;;6.00;86.20;;;;;;5061269;28;20229;-85
2021/04/19 03:19:57;;;;;;;19.87;14.70;;;6.10;88.40;;;;;;5057921;28;20256;-84
2021/04/19 03:22:25;;;;;;;21.57;16.10;;;6.10;86.80;;;;;;5053540;28;20232;-85
2021/04/19 03:24:51;;;;;;;21.93;16.70;;;6.10;85.10;;;;;;5068377;28;20766;-86
2021/04/19 03:27:20;;;;;;;19.53;15.50;;;6.10;85.60;;;;;;5066308;28;20248;-86
2021/04/19 03:29:46;;;;;;;20.27;15.40;;;6.00;87.60;;;;;;5065104;28;20260;-86
2021/04/19 03:32:21;;;;;;;19.83;15.10;;;6.20;87.80;;;;;;5060054;28;20683;-86
2021/04/19 03:34:47;;;;;;;19.17;14.13;;;6.30;85.90;;;;;;5059199;28;20212;-85
2021/04/19 03:37:17;;;;;;;20.43;16.17;;;6.30;85.50;;;;;;5065309;28;20222;-84
2021/04/19 03:39:47;;;;;;;20.47;16.43;;;6.30;85.00;;;;;;5064410;28;20210;-85
2021/04/19 03:42:15;;;;;;;20.37;15.03;;;6.10;84.30;;;;;;5060483;28;20213;-86
2021/04/19 03:44:43;;;;;;;20.77;15.57;;;6.00;89.00;;;;;;5067917;28;20202;-85
2021/04/19 03:47:11;;;;;;;20.97;15.00;;;6.00;88.30;;;;;;5060699;28;20225;-85
2021/04/19 03:49:43;;;;;;;20.27;15.43;;;6.20;88.30;;;;;;5064719;28;20202;-86
2021/04/19 03:52:12;;;;;;;22.67;16.63;;;6.10;85.10;;;;;;5065331;28;20225;-86
2021/04/19 03:54:45;;;;;;;20.43;15.70;;;5.90;84.90;;;;;;5062368;28;20212;-84
2021/04/19 03:57:16;;;;;;;19.90;15.57;;;5.80;89.50;;;;;;5048069;28;20587;-84
2021/04/19 03:59:45;;;;;;;20.27;15.77;;;5.90;88.90;;;;;;5054569;28;20202;-84
2021/04/19 04:02:15;;;;;;;18.27;14.90;;;5.80;87.00;;;;;;5050704;28;20230;-86
2021/04/19 04:04:43;;;;;;;20.53;14.80;;;5.90;89.50;;;;;;5054008;28;20259;-84
2021/04/19 04:07:12;;;;;;;21.77;15.80;;;6.10;88.40;;;;;;5052924;28;20222;-84
2021/04/19 04:09:40;;;;;;;20.23;15.37;;;6.20;86.80;;;;;;5049463;28;20209;-84
2021/04/19 04:12:12;;;;;;;20.23;15.53;;;6.30;86.00;;;;;;5051611;28;20222;-84
2021/04/19 04:14:49;;;;;;;20.33;15.67;;;6.20;84.70;;;;;;5058394;28;20205;-84
2021/04/19 04:17:15;;;;;;;19.17;14.40;;;6.00;88.30;;;;;;5049984;28;20699;-87
2021/04/19 04:19:43;;;;;;;22.57;15.80;;;6.20;87.80;;;;;;5052408;28;20201;-84
2021/04/19 04:22:10;;;;;;;20.50;16.20;;;6.10;85.50;;;;;;5054539;28;20218;-84
2021/04/19 04:24:37;;;;;;;18.97;15.20;;;6.00;86.00;;;;;;5064655;28;20648;-85
2021/04/19 04:27:04;;;;;;;24.47;16.80;;;6.00;89.60;;;;;;5055852;28;20241;-85
2021/04/19 04:29:30;;;;;;;21.83;16.33;;;6.00;86.80;;;;;;5061638;28;20201;-84
2021/04/19 04:31:56;;;;;;;21.83;14.93;;;6.00;87.20;;;;;;5047004;28;20226;-84
2021/04/19 04:34:23;;;;;;;21.90;16.27;;;6.10;89.50;;;;;;5056872;28;20661;-86
2021/04/19 04:36:50;;;;;;;19.70;15.80;;;6.10;86.70;;;;;;5051800;28;20236;-85
2021/04/19 04:39:16;;;;;;;20.00;14.97;;;6.20;87.80;;;;;;5053008;28;20197;-84
2021/04/19 04:41:43;;;;;;;23.73;16.07;;;6.30;85.90;;;;;;5048493;28;20260;-84
2021/04/19 04:44:14;;;;;;;23.10;17.50;;;6.40;84.10;;;;;;5050498;28;20202;-85
2021/04/19 04:46:48;;;;;;;26.13;17.07;;;6.30;83.10;;;;;;5050777;28;20229;-84
2021/04/19 04:49:20;;;;;;;22.10;16.57;;;6.20;87.90;;;;;;5058146;28;20250;-84
2021/04/19 04:51:49;;;;;;;22.80;16.30;;;6.20;87.80;;;;;;5054302;28;20233;-84
2021/04/19 04:54:19;;;;;;;23.83;16.63;;;6.30;84.90;;;;;;5057060;28;20202;-84
2021/04/19 04:56:51;;;;;;;19.93;15.60;;;6.50;84.60;;;;;;5054138;28;20229;-86
2021/04/19 04:59:19;;;;;;;22.93;15.30;;;6.50;84.30;;;;;;5049318;28;20214;-83
2021/04/19 05:01:47;;;;;;;18.73;14.90;;;6.50;85.60;;;;;;5046732;28;20700;-83
2021/04/19 05:04:14;;;;;;;21.27;16.27;;;6.70;84.50;;;;;;5050746;28;20219;-83
2021/04/19 05:06:41;;;;;;;21.60;15.30;;;6.80;84.30;;;;;;5052203;28;20232;-85
2021/04/19 05:09:09;;;;;;;19.03;15.37;;;6.70;82.70;;;;;;5043733;28;20209;-84
2021/04/19 05:11:38;;;;;;;19.73;15.47;;;6.60;82.10;;;;;;5051742;28;20721;-86
2021/04/19 05:14:04;;;;;;;20.83;14.67;;;6.60;84.20;;;;;;5046331;28;20235;-85
2021/04/19 05:16:31;;;;;;;18.30;14.80;;;6.60;85.90;;;;;;5041803;28;20252;-85
2021/04/19 05:18:59;;;;;;;21.13;15.60;;;6.80;84.40;;;;;;5041212;28;20189;-84
2021/04/19 05:21:25;;;;;;;20.10;15.60;;;6.70;82.10;;;;;;5048992;28;20291;-86
2021/04/19 05:23:52;;;;;;;21.50;16.77;;;6.80;83.00;;;;;;5046534;28;20649;-87
2021/04/19 05:26:20;;;;;;;20.23;15.60;;;6.80;81.50;;;;;;5051504;28;20217;-84
2021/04/19 05:28:47;;;;;;;21.03;15.83;;;6.90;83.70;;;;;;5055136;28;20202;-87
2021/04/19 05:31:15;;;;;;;20.07;15.73;;;7.00;84.50;;;;;;5057362;28;20232;-84
2021/04/19 05:33:48;;;;;;;19.53;15.17;;;7.00;82.70;;;;;;5050829;28;20190;-84
2021/04/19 05:36:15;;;;;;;20.53;15.17;;;7.10;82.00;;;;;;5040653;28;20221;-83
2021/04/19 05:38:49;;;;;;;19.57;15.20;;;7.20;81.60;;;;;;5057536;28;20206;-83
2021/04/19 05:41:15;;;;;;;20.13;15.53;;;7.50;80.60;;;;;;5057794;28;20610;-86
2021/04/19 05:43:42;;;;;;;18.20;14.47;;;7.60;79.80;;;;;;5052632;28;20194;-83
2021/04/19 05:46:09;;;;;;;20.23;15.50;;;7.80;79.50;;;;;;5054991;28;20221;-83
2021/04/19 05:48:55;;;;;;;19.87;16.43;;;7.90;77.60;;;;;;5054304;28;20213;-83
2021/04/19 05:51:26;;;;;;;20.83;15.90;;;8.20;76.30;;;;;;5053419;28;20245;-85
2021/04/19 05:53:56;;;;;;;20.17;14.97;;;8.30;76.30;;;;;;5059364;28;20207;-85
2021/04/19 05:59:51;;;;;;;25.40;16.27;;;8.60;73.50;;;;;;5072137;28;20201;-84
2021/04/19 06:06:11;;;;;;;25.97;14.87;;;8.80;72.90;;;;;;5066311;28;20237;-83
2021/04/19 06:09:32;;;;;;;19.98;14.98;;;9.40;68.40;;;;;;5067152;28;20208;-83
2021/04/19 06:23:08;;;;;;;20.95;16.00;;;10.40;56.80;;;;;;5070041;28;20652;-86
2021/04/19 06:25:38;;;;;;;20.67;15.23;;;10.40;56.70;;;;;;5069199;28;20201;-85
2021/04/19 06:28:06;;;;;;;20.48;16.00;;;10.70;55.90;;;;;;5067058;28;20239;-87
2021/04/19 06:30:44;;;;;;;20.20;15.18;;;10.70;54.50;;;;;;5069609;28;20432;-85
2021/04/19 06:35:47;;;;;;;19.40;16.17;;;10.30;57.60;;;;;;5457679;22;20252;-85
2021/04/19 06:38:17;;;;;;;18.20;14.88;;;10.00;58.30;;;;;;5083991;28;20572;-85
2021/04/19 06:44:07;;;;;;;20.98;15.48;;;10.30;58.90;;;;;;5074589;28;20225;-85
2021/04/19 06:57:06;;;;;;;18.92;15.15;;;10.70;56.80;;;;;;5059928;28;20190;-86
2021/04/19 07:00:10;;;;;;;18.13;14.82;;;10.90;55.80;;;;;;5063184;28;20186;-85
2021/04/19 07:13:18;;;;;;;23.55;16.65;;;10.80;55.70;;;;;;5064716;28;20201;-89
2021/04/19 07:15:46;;;;;;;19.02;14.52;;;11.00;55.60;;;;;;5070450;28;20230;-89
2021/04/19 07:18:15;;;;;;;19.98;15.15;;;11.10;56.70;;;;;;5085262;28;20224;-85
2021/04/19 07:21:06;;;;;;;21.17;15.02;;;11.30;54.90;;;;;;5083594;28;20231;-85
2021/04/19 07:23:37;;;;;;;20.30;15.57;;;11.30;54.10;;;;;;5084418;28;20193;-88
2021/04/19 07:26:10;;;;;;;20.48;15.95;;;11.10;56.50;;;;;;5086595;28;20193;-85
2021/04/19 07:28:40;;;;;;;22.17;16.20;;;11.20;55.00;;;;;;5086374;28;20212;-85
2021/04/19 07:34:42;;;;;;;21.90;15.90;;;10.80;55.60;;;;;;5084914;28;20184;-84
2021/04/19 07:37:51;;;;;;;20.33;16.10;;;10.30;57.10;;;;;;5085477;28;20244;-85
2021/04/19 07:44:02;;;;;;;21.38;15.70;;;10.30;58.20;;;;;;5085487;28;20212;-86
2021/04/19 08:07:03;;;;;;;21.00;15.95;;;10.60;58.00;;;;;;5085286;28;20200;-87
2021/04/19 08:13:08;;;;;;;20.50;15.93;;;11.70;55.90;;;;;;5003269;28;20335;-85
2021/04/19 08:15:37;;;;;;;22.55;16.85;;;11.80;54.50;;;;;;5081389;28;20221;-85
2021/04/19 08:18:08;;;;;;;18.52;15.35;;;11.90;53.20;;;;;;5080265;28;20357;-86
2021/04/19 08:20:35;;;;;;;19.08;15.20;;;12.40;52.40;;;;;;5085894;28;20228;-86
2021/04/19 08:25:57;;;;;;;21.35;15.80;;;12.30;49.90;;;;;;5067954;28;20236;-86
2021/04/19 08:34:20;;;;;;;21.42;15.55;;;12.50;49.00;;;;;;5769502;22;20234;-87
2021/04/19 08:36:46;;;;;;;18.92;15.15;;;12.30;48.90;;;;;;5016991;28;20262;-86
2021/04/19 08:39:13;;;;;;;19.92;13.90;;;12.80;50.60;;;;;;5015168;28;20669;-85
2021/04/19 08:41:46;;;;;;;15.57;13.23;;;13.30;49.80;;;;;;5013762;28;20584;-84
2021/04/19 08:44:41;;;;;;;17.48;14.05;;;14.30;46.50;;;;;;5016139;28;20204;-84
2021/04/19 08:47:30;;;;;;;19.83;15.10;;;15.00;41.40;;;;;;5016994;28;20232;-83
2021/04/19 08:49:58;;;;;;;21.20;14.82;;;15.40;40.60;;;;;;5020255;28;20617;-85
2021/04/19 08:59:25;;;;;;;17.52;14.90;;;15.40;38.60;;;;;;5001042;28;20187;-86
2021/04/19 09:25:28;;;;;;;19.58;14.40;;;12.10;48.70;;;;;;5004834;28;20623;-85
2021/04/19 09:44:27;;;;;;;18.38;12.57;;;13.10;49.60;;;;;;5074438;28;20264;-84
2021/04/19 09:46:54;;;;;;;15.57;13.27;;;15.50;41.00;;;;;;5079040;28;20636;-83
2021/04/19 09:49:22;;;;;;;19.77;13.93;;;16.70;38.60;;;;;;5078174;28;20636;-81
2021/04/19 10:05:43;;;;;;;15.07;12.32;;;18.20;30.50;;;;;;5075445;28;20195;-80
2021/04/19 10:15:43;;;;;;;11.90;10.60;;;20.30;26.40;;;;;;5074500;28;20268;-81
2021/04/19 10:18:14;;;;;;;13.30;11.93;;;20.50;26.90;;;;;;5073962;28;20193;-83
2021/04/19 10:20:50;;;;;;;10.93;9.70;;;19.50;26.60;;;;;;5068243;28;20612;-83
2021/04/19 10:23:20;;;;;;;16.05;12.00;;;18.80;28.70;;;;;;5069568;28;20205;-82
2021/04/19 10:25:49;;;;;;;16.02;12.30;;;18.30;29.90;;;;;;5076963;28;20236;-85
2021/04/19 10:28:26;;;;;;;13.25;11.50;;;18.20;30.60;;;;;;5077624;28;20219;-83
2021/04/19 10:31:04;;;;;;;15.05;13.55;;;18.40;30.70;;;;;;5069686;28;20295;-82
2021/04/19 10:33:30;;;;;;;14.57;11.98;;;18.10;30.50;;;;;;5072174;28;20224;-82
2021/04/19 10:35:58;;;;;;;17.98;13.52;;;17.40;33.00;;;;;;5076875;28;20232;-83
2021/04/19 10:38:27;;;;;;;16.42;12.82;;;16.70;34.40;;;;;;5080222;28;20206;-85
2021/04/19 10:40:59;;;;;;;16.77;12.85;;;15.70;37.90;;;;;;5067630;28;20233;-85
2021/04/19 10:43:25;;;;;;;15.15;13.27;;;15.30;37.50;;;;;;5073762;28;20328;-83
2021/04/19 10:45:52;;;;;;;15.75;12.88;;;15.20;37.90;;;;;;5068130;28;20228;-86
2021/04/19 10:48:20;;;;;;;14.93;12.25;;;15.00;38.30;;;;;;5076928;28;20208;-86
2021/04/19 10:50:48;;;;;;;18.98;13.25;;;14.70;38.30;;;;;;5077269;28;20308;-86
2021/04/19 10:53:36;;;;;;;16.20;12.10;;;14.40;39.30;;;;;;5076833;28;20207;-85
2021/04/19 10:56:29;;;;;;;16.65;12.95;;;14.50;40.70;;;;;;5077912;28;20628;-84
2021/04/19 10:59:49;;;;;;;13.60;11.73;;;14.50;38.90;;;;;;5080908;28;20185;-84
2021/04/19 11:02:21;;;;;;;17.05;11.85;;;14.60;39.40;;;;;;5082149;28;20208;-84
2021/04/19 11:04:48;;;;;;;14.77;12.20;;;14.90;39.70;;;;;;5076834;28;20193;-87
2021/04/19 11:07:35;;;;;;;20.42;13.43;;;15.70;36.70;;;;;;5072163;28;20221;-84
2021/04/19 11:10:21;;;;;;;14.60;12.25;;;16.10;35.50;;;;;;5077165;28;20213;-83
2021/04/19 11:13:00;;;;;;;13.48;11.95;;;16.00;36.00;;;;;;5074283;28;20219;-85
2021/04/19 11:15:32;;;;;;;17.35;11.90;;;15.80;34.80;;;;;;5069548;28;20208;-88
2021/04/19 11:18:00;;;;;;;14.23;11.68;;;15.50;34.40;;;;;;5073016;28;20206;-88
2021/04/19 11:20:31;;;;;;;13.40;11.68;;;15.10;37.40;;;;;;5068332;28;20205;-87
2021/04/19 11:23:00;;;;;;;16.50;11.02;;;14.70;36.70;;;;;;5077046;28;20205;-86
2021/04/19 11:25:34;;;;;;;15.02;11.07;;;14.60;37.60;;;;;;5065515;28;20646;-84
2021/04/19 11:28:23;;;;;;;15.10;11.00;;;14.30;38.90;;;;;;5082667;28;20197;-88
2021/04/19 11:30:53;;;;;;;13.43;10.43;;;14.10;38.70;;;;;;5076157;28;20229;-88
2021/04/19 11:33:22;;;;;;;10.98;9.38;;;14.30;37.60;;;;;;5075125;28;20230;-87
2021/04/19 11:35:59;;;;;;;12.65;10.18;;;14.60;37.70;;;;;;5078850;28;20234;-88
2021/04/19 11:38:28;;;;;;;12.95;10.30;;;14.70;38.70;;;;;;5079644;28;20209;-89
2021/04/19 11:41:02;;;;;;;15.68;10.43;;;15.20;35.80;;;;;;5078819;28;20235;-89
2021/04/19 11:43:31;;;;;;;11.63;10.25;;;15.40;35.10;;;;;;5073303;28;20276;-87
2021/04/19 11:46:03;;;;;;;10.20;8.93;;;15.40;34.30;;;;;;5075683;28;20694;-86
2021/04/19 11:48:31;;;;;;;11.02;8.70;;;15.60;33.90;;;;;;5071315;28;20247;-86
2021/04/19 11:50:58;;;;;;;12.05;9.32;;;16.00;32.00;;;;;;5076662;28;20228;-88
2021/04/19 11:53:26;;;;;;;10.32;8.43;;;15.80;33.20;;;;;;5071565;28;20190;-86
2021/04/19 11:55:53;;;;;;;12.77;9.52;;;15.80;30.70;;;;;;5069043;28;20241;-86
2021/04/19 11:58:22;;;;;;;12.32;8.98;;;15.80;32.80;;;;;;5076523;28;20201;-87
2021/04/19 12:00:49;;;;;;;12.73;9.50;;;15.40;33.90;;;;;;5086649;28;20267;-87
2021/04/19 12:03:18;;;;;;;11.90;9.30;;;15.10;35.30;;;;;;5088962;28;20260;-84
2021/04/19 12:05:45;;;;;;;10.50;8.55;;;14.90;35.00;;;;;;5091277;28;20229;-84
2021/04/19 12:11:57;;;;;;;11.63;9.32;;;14.70;35.80;;;;;;5079894;28;20311;-84
2021/04/19 12:14:27;;;;;;;12.55;8.93;;;14.70;36.10;;;;;;5085007;28;20636;-85
2021/04/19 12:20:32;;;;;;;12.55;9.65;;;14.40;35.10;;;;;;5085662;28;20223;-86
2021/04/19 12:23:12;;;;;;;12.40;9.52;;;14.40;35.90;;;;;;5090390;28;20221;-84
2021/04/19 12:25:39;;;;;;;10.07;8.60;;;14.20;35.50;;;;;;5087370;28;20270;-85
2021/04/19 12:28:33;;;;;;;14.68;8.30;;;14.30;36.30;;;;;;5085715;28;20283;-84
2021/04/19 12:31:01;;;;;;;9.82;8.10;;;14.20;34.70;;;;;;5080931;28;20290;-86
2021/04/19 12:33:28;;;;;;;10.13;8.48;;;14.80;34.20;;;;;;5081093;28;20213;-86
2021/04/19 12:35:55;;;;;;;10.13;8.52;;;15.20;33.90;;;;;;5083717;28;20225;-85
2021/04/19 12:38:22;;;;;;;9.85;8.43;;;15.30;32.70;;;;;;5086881;28;20204;-84
2021/04/19 12:40:48;;;;;;;12.02;8.57;;;15.10;34.70;;;;;;5081851;28;20242;-85
2021/04/19 12:43:15;;;;;;;10.73;8.90;;;15.10;32.90;;;;;;5087198;28;20192;-86
2021/04/19 12:46:27;;;;;;;12.07;7.90;;;14.70;34.10;;;;;;5075141;28;20237;-85
2021/04/19 12:52:20;;;;;;;10.65;8.50;;;13.80;36.10;;;;;;5086840;28;20240;-86
2021/04/19 12:54:46;;;;;;;12.27;8.48;;;13.60;36.30;;;;;;5077775;28;20285;-84
2021/04/19 12:57:13;;;;;;;13.57;8.68;;;13.30;36.80;;;;;;5073292;28;20236;-88
2021/04/19 12:59:39;;;;;;;10.75;8.60;;;13.20;38.10;;;;;;5077924;28;20211;-86
2021/04/19 13:02:06;;;;;;;12.45;8.73;;;13.20;38.80;;;;;;5076689;28;20224;-88
2021/04/19 13:04:33;;;;;;;9.77;7.72;;;13.30;37.90;;;;;;5087362;28;20234;-88
2021/04/19 13:07:00;;;;;;;11.00;8.68;;;13.40;38.00;;;;;;5086558;28;20221;-88
2021/04/19 13:09:28;;;;;;;14.30;10.40;;;13.30;37.10;;;;;;5083881;28;20202;-89
2021/04/19 13:11:54;;;;;;;13.10;10.00;;;13.30;39.90;;;;;;5083079;28;20232;-85
2021/04/19 13:14:21;;;;;;;12.95;10.63;;;13.30;40.70;;;;;;5079509;28;20201;-86
2021/04/19 13:16:52;;;;;;;13.55;10.70;;;13.50;40.90;;;;;;5076629;28;20684;-84
2021/04/19 13:19:20;;;;;;;13.40;11.10;;;13.60;40.00;;;;;;5079961;28;20204;-88
2021/04/19 13:21:48;;;;;;;13.35;10.02;;;13.70;39.60;;;;;;5078935;28;20253;-87
2021/04/19 13:24:19;;;;;;;14.57;9.57;;;13.60;39.70;;;;;;5084898;28;20320;-90
2021/04/19 13:26:46;;;;;;;12.02;8.85;;;13.60;39.60;;;;;;5086101;28;20225;-87
2021/04/19 13:29:13;;;;;;;11.38;9.07;;;13.50;39.80;;;;;;5080146;28;20197;-87
2021/04/19 13:31:39;;;;;;;12.80;8.93;;;13.60;38.20;;;;;;5073566;28;20239;-87
2021/04/19 13:34:06;;;;;;;12.25;8.88;;;13.70;38.50;;;;;;5083988;28;20196;-85
2021/04/19 13:36:32;;;;;;;10.90;8.73;;;14.00;38.40;;;;;;5086489;28;20228;-87
2021/04/19 13:39:01;;;;;;;11.13;8.95;;;14.40;36.10;;;;;;5072091;28;20204;-86
2021/04/19 13:41:30;;;;;;;11.43;9.07;;;14.40;36.10;;;;;;5071756;28;20714;-89
2021/04/19 13:43:58;;;;;;;10.50;8.52;;;13.90;39.70;;;;;;5084621;28;20207;-87
2021/04/19 13:46:29;;;;;;;13.38;9.55;;;14.00;43.00;;;;;;5078844;28;20239;-85
2021/04/19 13:48:56;;;;;;;11.95;8.77;;;12.80;47.90;;;;;;5086520;28;20205;-86
2021/04/19 13:51:22;;;;;;;11.60;9.07;;;12.60;49.10;;;;;;5075295;28;20247;-85
2021/04/19 13:53:49;;;;;;;10.60;9.27;;;12.50;50.20;;;;;;5081993;28;20229;-85
2021/04/19 13:56:15;;;;;;;10.32;8.27;;;12.30;50.00;;;;;;5082465;28;20231;-86
2021/04/19 13:58:41;;;;;;;11.60;8.73;;;12.00;51.50;;;;;;5081298;28;20201;-85
2021/04/19 14:01:09;;;;;;;12.13;9.60;;;11.80;53.00;;;;;;5075800;28;20236;-85
2021/04/19 14:03:35;;;;;;;13.50;10.00;;;11.50;55.30;;;;;;5076567;28;20204;-85
2021/04/19 14:06:02;;;;;;;14.18;9.73;;;11.30;55.70;;;;;;5072111;28;20218;-85
2021/04/19 14:08:28;;;;;;;15.77;10.15;;;11.10;56.10;;;;;;5075602;28;20197;-88
2021/04/19 14:10:55;;;;;;;12.35;9.73;;;10.90;59.20;;;;;;5082661;28;20228;-90
2021/04/19 14:13:22;;;;;;;13.60;9.82;;;10.50;63.30;;;;;;5078947;28;20201;-85
2021/04/19 14:15:49;;;;;;;13.32;10.55;;;10.10;71.90;;;;;;5069277;28;20245;-87
2021/04/19 14:18:17;;;;;;;13.02;10.15;;;9.70;80.10;;;;;;5071567;28;20200;-86
2021/04/19 14:20:44;;;;;;;13.35;10.82;;;9.30;83.60;;;;;;5077817;28;20229;-85
2021/04/19 14:23:11;;;;;;;17.40;11.75;;;9.10;86.20;;;;;;5071207;28;20201;-87
2021/04/19 14:25:37;;;;;;;15.60;12.33;;;8.80;89.40;;;;;;5073147;28;20225;-87
2021/04/19 14:28:04;;;;;;;16.67;13.03;;;8.60;91.90;;;;;;5075090;28;20193;-85
2021/04/19 14:30:40;;;;;;;18.27;13.57;;;8.40;93.70;;;;;;5067361;28;20198;-86
2021/04/19 14:33:06;;;;;;;18.07;13.23;;;8.30;95.80;;;;;;5070840;28;20233;-88
2021/04/19 14:35:34;;;;;;;22.07;14.70;;;8.20;96.30;;;;;;5067968;28;20224;-87
2021/04/19 14:38:00;;;;;;;19.10;14.27;;;8.00;97.40;;;;;;5063854;28;20209;-88
2021/04/19 14:40:27;;;;;;;19.07;14.47;;;7.90;98.10;;;;;;5068382;28;20206;-86
2021/04/19 14:42:53;;;;;;;17.17;13.07;;;7.80;98.10;;;;;;5072939;28;20258;-85
2021/04/19 14:45:19;;;;;;;17.67;13.20;;;7.70;98.90;;;;;;5071115;28;20206;-86
2021/04/19 14:47:46;;;;;;;15.47;11.57;;;7.50;99.30;;;;;;5071972;28;20205;-85
2021/04/19 14:50:13;;;;;;;16.37;12.27;;;7.60;99.70;;;;;;5068504;28;20204;-86
2021/04/19 14:52:40;;;;;;;15.37;11.90;;;7.40;99.70;;;;;;5069812;28;20233;-86
2021/04/19 14:55:09;;;;;;;14.43;11.97;;;7.40;99.90;;;;;;5071830;28;20262;-82
2021/04/19 14:57:35;;;;;;;16.20;12.90;;;7.30;99.90;;;;;;5077523;28;20742;-86
2021/04/19 15:00:03;;;;;;;22.80;14.87;;;7.40;99.90;;;;;;5070787;28;20315;-83
2021/04/19 15:02:29;;;;;;;24.07;15.53;;;7.40;99.90;;;;;;5065539;28;20268;-85
2021/04/19 15:04:55;;;;;;;25.63;15.57;;;7.50;99.90;;;;;;5075812;28;20202;-87
2021/04/19 15:07:22;;;;;;;23.10;15.73;;;7.50;99.90;;;;;;5074871;28;20236;-87
2021/04/19 15:09:49;;;;;;;21.97;14.80;;;7.60;99.90;;;;;;5067120;28;20202;-85
2021/04/19 15:12:16;;;;;;;25.23;17.37;;;7.50;99.90;;;;;;5071093;28;20225;-85
2021/04/19 15:14:43;;;;;;;26.07;18.40;;;7.50;99.90;;;;;;5073456;28;20202;-86
2021/04/19 15:17:10;;;;;;;21.50;14.93;;;7.60;99.90;;;;;;5074175;28;20243;-85
2021/04/19 15:19:37;;;;;;;15.90;12.87;;;7.50;99.90;;;;;;5069777;28;20251;-87
2021/04/19 15:22:04;;;;;;;18.37;13.73;;;7.40;99.90;;;;;;5072615;28;20221;-84
2021/04/19 15:24:52;;;;;;;16.77;13.10;;;7.40;99.90;;;;;;5069165;28;20204;-87
2021/04/19 15:27:19;;;;;;;17.13;11.73;;;7.40;99.90;;;;;;5081667;28;20273;-84
2021/04/19 15:29:47;;;;;;;16.17;11.27;;;7.40;99.90;;;;;;5074299;28;20202;-86
2021/04/19 15:32:14;;;;;;;15.50;11.27;;;7.30;99.90;;;;;;5068431;28;20873;-84